Time;durP1;ratioP1;P1;durP2;ratioP2;P2;SDS_P1;SDS_P2;PMS_P1;PMS_P2;Temp;Humidity;BMP_temperature;BMP_pressure;BME280_temperature;BME280_humidity;BME280_pressure;Samples;Min_cycle;Max_cycle;Signal;HPM_P1;HPM_P2
2021/06/14 00:02:04;;;;;;;11.38;6.22;;;;;;;;;;5075043;28;20016;-65
2021/06/14 00:04:31;;;;;;;7.93;5.70;;;;;;;;;;5074950;28;20033;-65
2021/06/14 00:06:56;;;;;;;10.20;5.93;;;;;;;;;;5071806;28;20080;-66
2021/06/14 00:09:24;;;;;;;12.75;5.97;;;;;;;;;;5074313;28;20070;-65
2021/06/14 00:11:49;;;;;;;8.07;6.15;;;;;;;;;;5074610;28;20020;-66
2021/06/14 00:14:14;;;;;;;11.10;6.40;;;;;;;;;;5074964;28;20012;-65
2021/06/14 00:16:40;;;;;;;9.35;6.05;;;;;;;;;;5072036;28;20485;-66
2021/06/14 00:19:06;;;;;;;11.25;6.20;;;;;;;;;;5071347;28;20029;-65
2021/06/14 00:21:31;;;;;;;9.18;5.25;;;;;;;;;;5074646;28;20024;-65
2021/06/14 00:23:56;;;;;;;12.88;6.03;;;;;;;;;;5074650;28;20161;-65
2021/06/14 00:26:22;;;;;;;8.98;5.70;;;;;;;;;;5072407;28;20039;-65
2021/06/14 00:28:47;;;;;;;12.35;5.57;;;;;;;;;;5069872;28;20043;-65
2021/06/14 00:31:12;;;;;;;8.00;5.18;;;;;;;;;;5074016;28;20036;-65
2021/06/14 00:33:39;;;;;;;7.43;5.25;;;;;;;;;;5074115;28;20013;-65
2021/06/14 00:36:05;;;;;;;7.25;5.28;;;;;;;;;;5072935;28;20031;-65
2021/06/14 00:38:30;;;;;;;9.27;5.53;;;;;;;;;;5061597;28;20052;-65
2021/06/14 00:40:55;;;;;;;11.35;5.90;;;;;;;;;;5072830;28;20084;-65
2021/06/14 00:43:21;;;;;;;11.07;5.45;;;;;;;;;;5074043;28;20051;-65
2021/06/14 00:45:47;;;;;;;7.82;6.05;;;;;;;;;;5073735;28;20024;-65
2021/06/14 00:48:13;;;;;;;8.73;6.75;;;;;;;;;;5069878;28;20427;-65
2021/06/14 00:50:38;;;;;;;8.35;6.28;;;;;;;;;;5073718;28;20100;-65
2021/06/14 00:53:07;;;;;;;11.65;6.90;;;;;;;;;;5088222;28;20360;-66
2021/06/14 00:55:32;;;;;;;9.82;6.30;;;;;;;;;;5073511;28;20021;-66
2021/06/14 00:57:57;;;;;;;9.35;6.13;;;;;;;;;;5066611;28;20388;-66
2021/06/14 01:00:23;;;;;;;8.35;5.65;;;;;;;;;;5073183;28;20059;-66
2021/06/14 01:02:48;;;;;;;9.13;6.25;;;;;;;;;;5072598;28;20044;-66
2021/06/14 01:05:14;;;;;;;7.82;5.80;;;;;;;;;;5073798;28;20017;-66
2021/06/14 01:07:40;;;;;;;11.40;6.65;;;;;;;;;;5070814;28;20055;-66
2021/06/14 01:10:06;;;;;;;13.32;6.90;;;;;;;;;;5071885;28;20029;-66
2021/06/14 01:12:34;;;;;;;9.40;6.35;;;;;;;;;;5072048;28;20460;-67
2021/06/14 01:15:10;;;;;;;10.10;6.43;;;;;;;;;;5073246;28;20021;-66
2021/06/14 01:17:42;;;;;;;10.70;6.57;;;;;;;;;;5070591;28;20009;-66
2021/06/14 01:20:16;;;;;;;13.73;7.53;;;;;;;;;;5072916;28;20434;-66
2021/06/14 01:23:00;;;;;;;11.93;7.17;;;;;;;;;;5073208;28;20024;-65
2021/06/14 01:25:29;;;;;;;10.75;6.68;;;;;;;;;;5088107;28;20028;-65
2021/06/14 01:27:56;;;;;;;14.15;7.22;;;;;;;;;;5102569;28;20054;-65
2021/06/14 01:30:30;;;;;;;10.82;6.80;;;;;;;;;;5072799;28;20025;-65
2021/06/14 01:32:55;;;;;;;12.32;7.43;;;;;;;;;;5073376;28;20017;-65
2021/06/14 01:35:25;;;;;;;10.93;6.93;;;;;;;;;;5072513;28;20490;-65
2021/06/14 01:37:54;;;;;;;10.13;7.28;;;;;;;;;;5070272;28;20118;-65
2021/06/14 01:40:19;;;;;;;10.27;7.20;;;;;;;;;;5071633;28;20146;-65
2021/06/14 01:42:47;;;;;;;9.23;6.25;;;;;;;;;;5072521;28;20056;-65
2021/06/14 01:45:13;;;;;;;10.95;7.03;;;;;;;;;;5072453;28;20099;-65
2021/06/14 01:47:39;;;;;;;11.70;7.10;;;;;;;;;;5069621;28;20099;-65
2021/06/14 01:50:04;;;;;;;9.75;6.32;;;;;;;;;;5072630;28;20056;-65
2021/06/14 01:52:29;;;;;;;11.77;7.05;;;;;;;;;;5071385;28;20407;-65
2021/06/14 01:54:55;;;;;;;12.95;6.47;;;;;;;;;;5072592;28;20055;-65
2021/06/14 01:57:21;;;;;;;9.98;6.43;;;;;;;;;;5068909;28;20020;-64
2021/06/14 01:59:48;;;;;;;10.35;6.07;;;;;;;;;;5072566;28;20074;-65
2021/06/14 02:02:14;;;;;;;9.52;5.80;;;;;;;;;;5071866;28;20024;-64
2021/06/14 02:04:41;;;;;;;9.52;6.10;;;;;;;;;;5072064;28;20580;-65
2021/06/14 02:07:07;;;;;;;7.53;5.30;;;;;;;;;;5069754;28;20062;-65
2021/06/14 02:09:32;;;;;;;8.13;5.45;;;;;;;;;;5072304;28;20446;-65
2021/06/14 02:12:00;;;;;;;8.13;5.20;;;;;;;;;;5070110;28;20025;-65
2021/06/14 02:14:32;;;;;;;10.48;5.05;;;;;;;;;;5072672;28;20456;-65
2021/06/14 02:17:00;;;;;;;10.20;5.22;;;;;;;;;;5069663;28;20571;-65
2021/06/14 02:19:25;;;;;;;8.80;5.22;;;;;;;;;;5070713;28;20020;-65
2021/06/14 02:21:50;;;;;;;9.70;5.45;;;;;;;;;;5072068;28;20031;-65
2021/06/14 02:24:16;;;;;;;8.18;5.20;;;;;;;;;;5071058;28;20016;-65
2021/06/14 02:26:42;;;;;;;7.63;5.07;;;;;;;;;;5070863;28;20069;-64
2021/06/14 02:29:07;;;;;;;7.13;4.68;;;;;;;;;;5070984;28;20031;-64
2021/06/14 02:31:33;;;;;;;8.07;5.13;;;;;;;;;;5070377;28;20024;-65
2021/06/14 02:33:59;;;;;;;8.82;6.00;;;;;;;;;;5072006;28;20016;-64
2021/06/14 02:36:24;;;;;;;8.65;4.93;;;;;;;;;;5072211;28;20013;-65
2021/06/14 02:38:50;;;;;;;7.68;5.20;;;;;;;;;;5068945;28;20024;-65
2021/06/14 02:41:15;;;;;;;8.38;5.10;;;;;;;;;;5071631;28;20059;-65
2021/06/14 02:43:41;;;;;;;7.68;5.28;;;;;;;;;;5071625;28;20017;-65
2021/06/14 02:46:07;;;;;;;8.48;5.38;;;;;;;;;;5070863;28;20021;-65
2021/06/14 02:48:33;;;;;;;7.72;5.25;;;;;;;;;;5067283;28;20024;-65
2021/06/14 02:50:59;;;;;;;9.90;5.03;;;;;;;;;;5072203;28;20036;-65
2021/06/14 02:53:26;;;;;;;7.03;4.97;;;;;;;;;;5071930;28;20028;-65
2021/06/14 02:55:51;;;;;;;8.05;4.80;;;;;;;;;;5071516;28;20031;-65
2021/06/14 02:58:21;;;;;;;7.68;4.88;;;;;;;;;;5063453;28;20013;-66
2021/06/14 03:00:46;;;;;;;8.30;4.78;;;;;;;;;;5071297;28;20514;-65
2021/06/14 03:03:11;;;;;;;9.60;4.82;;;;;;;;;;5072006;28;20099;-65
2021/06/14 03:05:36;;;;;;;9.18;4.70;;;;;;;;;;5071803;28;20016;-65
2021/06/14 03:08:02;;;;;;;5.20;4.40;;;;;;;;;;5069047;28;20020;-64
2021/06/14 03:10:31;;;;;;;6.78;4.85;;;;;;;;;;5071507;28;20027;-65
2021/06/14 03:12:57;;;;;;;8.70;4.85;;;;;;;;;;5072191;28;20020;-64
2021/06/14 03:15:26;;;;;;;8.60;4.93;;;;;;;;;;5071625;28;20482;-65
2021/06/14 03:17:52;;;;;;;10.27;4.45;;;;;;;;;;5068778;28;20155;-65
2021/06/14 03:20:18;;;;;;;7.45;4.72;;;;;;;;;;5071573;28;20074;-65
2021/06/14 03:22:44;;;;;;;8.70;4.70;;;;;;;;;;5073412;28;20384;-65
2021/06/14 03:25:09;;;;;;;8.38;5.40;;;;;;;;;;5075149;28;20218;-65
2021/06/14 03:27:34;;;;;;;9.77;4.80;;;;;;;;;;5071131;28;20025;-65
2021/06/14 03:30:00;;;;;;;9.30;4.90;;;;;;;;;;5075554;28;20017;-65
2021/06/14 03:32:26;;;;;;;6.20;4.47;;;;;;;;;;5076373;28;20130;-65
2021/06/14 03:34:53;;;;;;;7.75;5.20;;;;;;;;;;5075106;28;20425;-65
2021/06/14 03:37:19;;;;;;;10.15;5.38;;;;;;;;;;5072373;28;20438;-65
2021/06/14 03:39:44;;;;;;;6.70;5.03;;;;;;;;;;5074691;28;20041;-66
2021/06/14 03:42:09;;;;;;;7.70;5.10;;;;;;;;;;5073552;28;20124;-65
2021/06/14 03:44:35;;;;;;;7.15;4.90;;;;;;;;;;5074971;28;20012;-66
2021/06/14 03:47:00;;;;;;;7.53;4.78;;;;;;;;;;5072700;28;20086;-65
2021/06/14 03:49:25;;;;;;;9.18;5.35;;;;;;;;;;5075076;28;20021;-66
2021/06/14 03:51:51;;;;;;;12.25;6.28;;;;;;;;;;5075133;28;20081;-66
2021/06/14 03:54:16;;;;;;;9.27;5.80;;;;;;;;;;5073635;28;20021;-66
2021/06/14 03:56:41;;;;;;;11.10;6.70;;;;;;;;;;5073608;28;20074;-66
2021/06/14 03:59:06;;;;;;;10.60;6.90;;;;;;;;;;5073366;28;20096;-66
2021/06/14 04:01:33;;;;;;;10.43;6.72;;;;;;;;;;5074486;28;20047;-65
2021/06/14 04:06:26;;;;;;;9.30;6.57;;;;;;;;;;5074638;28;20080;-65
2021/06/14 04:08:51;;;;;;;10.10;7.07;;;;;;;;;;5071582;28;20051;-65
2021/06/14 04:11:17;;;;;;;10.13;6.85;;;;;;;;;;5074649;28;20456;-65
2021/06/14 04:13:42;;;;;;;8.73;6.28;;;;;;;;;;5074714;28;20044;-65
2021/06/14 04:16:07;;;;;;;11.52;6.78;;;;;;;;;;5074876;28;20056;-65
2021/06/14 04:18:33;;;;;;;9.27;6.15;;;;;;;;;;5071155;28;20024;-65
2021/06/14 04:20:58;;;;;;;7.55;6.03;;;;;;;;;;5073354;28;20028;-65
2021/06/14 04:23:23;;;;;;;9.15;6.45;;;;;;;;;;5073092;28;20036;-65
2021/06/14 04:25:48;;;;;;;9.02;5.88;;;;;;;;;;5073683;28;20027;-66
2021/06/14 04:28:13;;;;;;;10.45;6.47;;;;;;;;;;5071561;28;20017;-66
2021/06/14 04:30:39;;;;;;;9.50;5.80;;;;;;;;;;5073894;28;20016;-66
2021/06/14 04:33:04;;;;;;;8.40;5.65;;;;;;;;;;5074088;28;20028;-66
2021/06/14 04:35:30;;;;;;;9.63;6.45;;;;;;;;;;5073590;28;20062;-66
2021/06/14 04:37:55;;;;;;;8.27;5.30;;;;;;;;;;5069902;28;20066;-66
2021/06/14 04:40:20;;;;;;;8.65;5.50;;;;;;;;;;5072449;28;20127;-66
2021/06/14 04:42:46;;;;;;;12.20;6.07;;;;;;;;;;5073712;28;20017;-66
2021/06/14 04:45:13;;;;;;;6.65;5.35;;;;;;;;;;5073413;28;20028;-66
2021/06/14 04:47:38;;;;;;;7.47;5.28;;;;;;;;;;5069779;28;20025;-66
2021/06/14 04:50:04;;;;;;;10.25;5.65;;;;;;;;;;5072376;28;20040;-66
2021/06/14 04:52:29;;;;;;;6.60;5.25;;;;;;;;;;5074122;28;20066;-66
2021/06/14 04:54:55;;;;;;;9.82;6.00;;;;;;;;;;5072923;28;20082;-66
2021/06/14 04:57:20;;;;;;;11.20;5.40;;;;;;;;;;5070655;28;20179;-66
2021/06/14 04:59:46;;;;;;;9.85;5.72;;;;;;;;;;5069364;28;20031;-66
2021/06/14 05:02:11;;;;;;;8.35;5.18;;;;;;;;;;5072556;28;20116;-66
2021/06/14 05:04:36;;;;;;;7.40;5.05;;;;;;;;;;5073459;28;20448;-66
2021/06/14 05:07:02;;;;;;;8.82;5.22;;;;;;;;;;5068921;28;20028;-66
2021/06/14 05:09:27;;;;;;;11.35;5.45;;;;;;;;;;5068021;28;20394;-66
2021/06/14 05:11:52;;;;;;;8.40;5.22;;;;;;;;;;5101137;28;20071;-66
2021/06/14 05:14:17;;;;;;;7.20;4.30;;;;;;;;;;5070049;28;20067;-66
2021/06/14 05:16:43;;;;;;;7.53;5.20;;;;;;;;;;5076194;28;20021;-66
2021/06/14 05:19:08;;;;;;;9.05;5.25;;;;;;;;;;5070353;28;20039;-66
2021/06/14 05:21:34;;;;;;;9.18;4.60;;;;;;;;;;5070631;28;20107;-66
2021/06/14 05:23:59;;;;;;;9.55;4.80;;;;;;;;;;5077107;28;20027;-66
2021/06/14 05:26:24;;;;;;;6.25;4.43;;;;;;;;;;5071148;28;20103;-67
2021/06/14 05:28:49;;;;;;;7.07;4.35;;;;;;;;;;5091128;28;20294;-67
2021/06/14 05:31:14;;;;;;;8.63;5.00;;;;;;;;;;5072033;28;20013;-66
2021/06/14 05:33:40;;;;;;;10.70;4.53;;;;;;;;;;5071517;28;20024;-66
2021/06/14 05:36:05;;;;;;;7.78;4.38;;;;;;;;;;5091946;28;20021;-66
2021/06/14 05:38:31;;;;;;;7.68;4.22;;;;;;;;;;5056922;28;20017;-66
2021/06/14 05:40:56;;;;;;;6.43;3.80;;;;;;;;;;5065245;28;20115;-66
2021/06/14 05:43:21;;;;;;;6.30;3.90;;;;;;;;;;5076320;28;20136;-66
2021/06/14 05:45:46;;;;;;;7.15;4.07;;;;;;;;;;5071555;28;20023;-66
2021/06/14 05:48:12;;;;;;;9.00;3.95;;;;;;;;;;5069452;28;20070;-66
2021/06/14 05:50:37;;;;;;;6.95;3.42;;;;;;;;;;5067300;28;20024;-66
2021/06/14 05:53:03;;;;;;;9.40;4.20;;;;;;;;;;5100919;28;20021;-66
2021/06/14 05:55:28;;;;;;;7.50;2.83;;;;;;;;;;5074988;28;20440;-66
2021/06/14 05:57:53;;;;;;;6.65;3.45;;;;;;;;;;5063844;28;20025;-66
2021/06/14 06:00:19;;;;;;;5.43;3.08;;;;;;;;;;5071935;28;20025;-66
2021/06/14 06:02:44;;;;;;;5.35;2.92;;;;;;;;;;5070887;28;20021;-66
2021/06/14 06:05:09;;;;;;;8.32;2.92;;;;;;;;;;5071740;28;20046;-66
2021/06/14 06:07:35;;;;;;;7.60;2.50;;;;;;;;;;5067938;28;20024;-66
2021/06/14 06:10:01;;;;;;;4.53;2.42;;;;;;;;;;5070765;28;20021;-66
2021/06/14 06:12:26;;;;;;;6.35;2.75;;;;;;;;;;5071659;28;20013;-66
2021/06/14 06:14:51;;;;;;;7.72;2.70;;;;;;;;;;5071987;28;20091;-66
2021/06/14 06:17:16;;;;;;;7.07;2.50;;;;;;;;;;5068572;28;20073;-66
2021/06/14 06:19:42;;;;;;;6.50;2.95;;;;;;;;;;5071421;28;20085;-67
2021/06/14 06:22:07;;;;;;;6.18;2.22;;;;;;;;;;5071644;28;20029;-66
2021/06/14 06:24:32;;;;;;;9.13;2.63;;;;;;;;;;5071897;28;20044;-67
2021/06/14 06:26:59;;;;;;;5.82;2.95;;;;;;;;;;5069111;28;20056;-67
2021/06/14 06:29:24;;;;;;;6.75;2.65;;;;;;;;;;5070337;28;20025;-67
2021/06/14 06:31:49;;;;;;;7.03;2.45;;;;;;;;;;5071739;28;20043;-66
2021/06/14 06:34:14;;;;;;;6.75;2.33;;;;;;;;;;5070703;28;20116;-67
2021/06/14 06:36:39;;;;;;;7.95;2.22;;;;;;;;;;5069437;28;20052;-67
2021/06/14 06:39:05;;;;;;;5.88;2.53;;;;;;;;;;5070793;28;20088;-67
2021/06/14 06:41:30;;;;;;;7.30;2.42;;;;;;;;;;5071891;28;20048;-67
2021/06/14 06:43:55;;;;;;;5.05;2.25;;;;;;;;;;5072764;28;20104;-67
2021/06/14 06:46:21;;;;;;;5.82;2.75;;;;;;;;;;5072039;28;20020;-67
2021/06/14 06:48:46;;;;;;;7.00;2.65;;;;;;;;;;5068444;28;20075;-67
2021/06/14 06:51:11;;;;;;;5.72;2.35;;;;;;;;;;5071479;28;20024;-67
2021/06/14 06:53:37;;;;;;;6.13;2.58;;;;;;;;;;5074670;28;20020;-67
2021/06/14 06:56:03;;;;;;;6.50;2.38;;;;;;;;;;5071734;28;20070;-67
2021/06/14 06:58:28;;;;;;;7.95;2.45;;;;;;;;;;5074899;28;20016;-67
2021/06/14 07:00:54;;;;;;;5.68;2.60;;;;;;;;;;5078510;28;20099;-67
2021/06/14 07:03:20;;;;;;;4.13;2.55;;;;;;;;;;5078552;28;20013;-66
2021/06/14 07:05:46;;;;;;;8.05;2.92;;;;;;;;;;5110886;28;20437;-66
2021/06/14 07:08:11;;;;;;;5.78;2.53;;;;;;;;;;5107711;28;20387;-67
2021/06/14 07:10:38;;;;;;;7.22;2.38;;;;;;;;;;5076625;28;20020;-67
2021/06/14 07:13:03;;;;;;;5.70;2.15;;;;;;;;;;5078500;28;20020;-66
2021/06/14 07:15:28;;;;;;;6.93;3.45;;;;;;;;;;5077067;28;20027;-67
2021/06/14 07:17:53;;;;;;;5.18;2.58;;;;;;;;;;5074100;28;20039;-67
2021/06/14 07:20:19;;;;;;;6.15;2.50;;;;;;;;;;5076561;28;20028;-67
2021/06/14 07:22:44;;;;;;;5.15;2.50;;;;;;;;;;5076787;28;20456;-67
2021/06/14 07:25:11;;;;;;;4.72;2.38;;;;;;;;;;5078034;28;20054;-67
2021/06/14 07:27:36;;;;;;;6.53;2.20;;;;;;;;;;5074988;28;20051;-67
2021/06/14 07:30:04;;;;;;;5.03;2.05;;;;;;;;;;5078282;28;20523;-67
2021/06/14 07:32:29;;;;;;;6.90;2.38;;;;;;;;;;5078777;28;20012;-67
2021/06/14 07:34:54;;;;;;;4.85;2.25;;;;;;;;;;5076715;28;20028;-67
2021/06/14 07:37:19;;;;;;;4.78;1.90;;;;;;;;;;5073273;28;20028;-67
2021/06/14 07:39:45;;;;;;;3.30;1.95;;;;;;;;;;5077785;28;20044;-67
2021/06/14 07:42:10;;;;;;;4.30;1.83;;;;;;;;;;5077733;28;20056;-67
2021/06/14 07:44:36;;;;;;;6.32;2.20;;;;;;;;;;5076779;28;20032;-67
2021/06/14 07:47:01;;;;;;;3.78;2.10;;;;;;;;;;5074915;28;20031;-67
2021/06/14 07:49:26;;;;;;;5.47;2.42;;;;;;;;;;5083491;28;20153;-68
2021/06/14 07:51:51;;;;;;;6.07;2.83;;;;;;;;;;5098421;28;20022;-67
2021/06/14 07:54:16;;;;;;;5.97;2.10;;;;;;;;;;5113053;27;20047;-67
2021/06/14 07:56:46;;;;;;;4.93;2.08;;;;;;;;;;5074436;28;20031;-66
2021/06/14 07:59:11;;;;;;;9.50;2.55;;;;;;;;;;5077040;28;20066;-67
2021/06/14 08:01:37;;;;;;;6.45;2.25;;;;;;;;;;5074427;28;20024;-65
2021/06/14 08:04:02;;;;;;;3.65;1.83;;;;;;;;;;5076315;28;20081;-64
2021/06/14 08:06:27;;;;;;;5.35;2.10;;;;;;;;;;5110457;27;20129;-64
2021/06/14 08:08:52;;;;;;;4.60;2.13;;;;;;;;;;5072775;28;20028;-66
2021/06/14 08:11:18;;;;;;;7.55;2.05;;;;;;;;;;5103020;28;20031;-65
2021/06/14 08:13:44;;;;;;;5.30;2.35;;;;;;;;;;5072710;28;20066;-67
2021/06/14 08:16:09;;;;;;;4.32;1.98;;;;;;;;;;5065392;28;20435;-67
2021/06/14 08:19:00;;;;;;;4.63;1.95;;;;;;;;;;5058004;28;20023;-67
2021/06/14 08:26:42;;;;;;;3.80;2.20;;;;;;;;;;5057913;28;20107;-67
2021/06/14 08:29:08;;;;;;;9.75;4.90;;;;;;;;;;5073718;28;20108;-67
2021/06/14 08:31:33;;;;;;;5.03;2.55;;;;;;;;;;5078641;28;20024;-67
2021/06/14 08:33:59;;;;;;;5.15;2.15;;;;;;;;;;5074223;28;20024;-66
2021/06/14 08:36:24;;;;;;;3.40;1.95;;;;;;;;;;5070382;28;20012;-66
2021/06/14 08:38:49;;;;;;;5.20;2.20;;;;;;;;;;5066693;28;20029;-66
2021/06/14 08:41:16;;;;;;;3.63;2.05;;;;;;;;;;5068966;28;20522;-67
2021/06/14 08:43:41;;;;;;;5.25;2.40;;;;;;;;;;5073340;28;20024;-66
2021/06/14 08:46:06;;;;;;;3.83;1.65;;;;;;;;;;5071214;28;20028;-67
2021/06/14 08:48:31;;;;;;;5.22;2.05;;;;;;;;;;5068553;28;20017;-66
2021/06/14 08:50:57;;;;;;;5.28;2.63;;;;;;;;;;5077824;28;20016;-66
2021/06/14 08:53:22;;;;;;;4.70;2.25;;;;;;;;;;5072779;28;20017;-67
2021/06/14 08:55:48;;;;;;;7.07;1.92;;;;;;;;;;5072019;28;20110;-67
2021/06/14 08:58:13;;;;;;;3.60;1.58;;;;;;;;;;5069977;28;20029;-67
2021/06/14 09:00:38;;;;;;;4.07;1.58;;;;;;;;;;5072213;28;20024;-67
2021/06/14 09:03:04;;;;;;;4.28;1.70;;;;;;;;;;5059973;28;20411;-67
2021/06/14 09:05:29;;;;;;;4.93;1.77;;;;;;;;;;5068991;28;20383;-67
2021/06/14 09:07:55;;;;;;;4.43;2.13;;;;;;;;;;5068738;28;20476;-67
2021/06/14 09:10:26;;;;;;;6.55;2.30;;;;;;;;;;5073530;28;20027;-67
2021/06/14 09:12:52;;;;;;;4.93;2.22;;;;;;;;;;5071678;28;20028;-67
2021/06/14 09:15:18;;;;;;;6.40;2.40;;;;;;;;;;5087590;28;20020;-67
2021/06/14 09:17:55;;;;;;;5.00;1.88;;;;;;;;;;5072488;28;20078;-67
2021/06/14 09:20:21;;;;;;;5.20;1.92;;;;;;;;;;5073267;28;20105;-67
2021/06/14 09:22:47;;;;;;;3.80;1.67;;;;;;;;;;5071708;28;20065;-67
2021/06/14 09:25:14;;;;;;;4.25;2.00;;;;;;;;;;5072226;28;20423;-67
2021/06/14 09:27:44;;;;;;;6.50;1.77;;;;;;;;;;5102534;28;20024;-67
2021/06/14 09:30:10;;;;;;;5.50;1.85;;;;;;;;;;5104960;27;20070;-67
2021/06/14 09:32:36;;;;;;;5.30;1.70;;;;;;;;;;5071280;28;20013;-67
2021/06/14 09:35:01;;;;;;;2.67;1.73;;;;;;;;;;5071250;28;20012;-67
2021/06/14 09:37:27;;;;;;;7.80;2.08;;;;;;;;;;5067232;28;20016;-67
2021/06/14 09:39:52;;;;;;;3.55;1.60;;;;;;;;;;5070075;28;20058;-67
2021/06/14 09:42:21;;;;;;;3.33;1.42;;;;;;;;;;5072334;28;20422;-67
2021/06/14 09:44:48;;;;;;;2.92;1.58;;;;;;;;;;5062162;28;20044;-67
2021/06/14 09:47:14;;;;;;;5.25;1.75;;;;;;;;;;5082128;28;20025;-67
2021/06/14 09:49:39;;;;;;;4.50;1.63;;;;;;;;;;5072507;28;20024;-67
2021/06/14 09:52:05;;;;;;;4.13;1.65;;;;;;;;;;5066872;28;20020;-66
2021/06/14 09:54:34;;;;;;;3.92;1.67;;;;;;;;;;5071037;28;20024;-66
2021/06/14 09:57:00;;;;;;;3.05;1.20;;;;;;;;;;5063905;28;20013;-66
2021/06/14 09:59:26;;;;;;;4.38;1.30;;;;;;;;;;5073435;28;20032;-66
2021/06/14 10:02:02;;;;;;;2.47;1.00;;;;;;;;;;5066339;28;20036;-66
2021/06/14 10:04:29;;;;;;;3.03;1.15;;;;;;;;;;5072902;28;20255;-66
2021/06/14 10:06:57;;;;;;;4.50;1.13;;;;;;;;;;5073653;28;20342;-66
2021/06/14 10:09:22;;;;;;;3.70;1.23;;;;;;;;;;5070273;28;20035;-66
2021/06/14 10:11:47;;;;;;;4.35;1.77;;;;;;;;;;5072084;28;20515;-66
2021/06/14 10:14:14;;;;;;;4.38;1.50;;;;;;;;;;5071280;28;20027;-67
2021/06/14 10:16:41;;;;;;;4.07;1.35;;;;;;;;;;5070650;28;20012;-67
2021/06/14 10:19:08;;;;;;;5.55;1.85;;;;;;;;;;5070291;28;20353;-67
2021/06/14 10:21:41;;;;;;;5.43;2.00;;;;;;;;;;5069573;28;20025;-67
2021/06/14 10:24:09;;;;;;;5.82;1.95;;;;;;;;;;5073691;28;20048;-67
2021/06/14 10:26:36;;;;;;;3.22;1.55;;;;;;;;;;5080098;28;20025;-67
2021/06/14 10:29:02;;;;;;;4.57;2.05;;;;;;;;;;5069486;28;20028;-67
2021/06/14 10:31:28;;;;;;;4.68;1.67;;;;;;;;;;5070794;28;20021;-66
2021/06/14 10:33:54;;;;;;;4.85;1.50;;;;;;;;;;5070435;28;20081;-67
2021/06/14 10:36:24;;;;;;;3.78;1.50;;;;;;;;;;5071472;28;20507;-67
2021/06/14 10:38:50;;;;;;;4.32;1.23;;;;;;;;;;5060945;28;20028;-67
2021/06/14 10:41:16;;;;;;;6.13;2.17;;;;;;;;;;5070922;28;20040;-66
2021/06/14 10:43:41;;;;;;;4.43;1.98;;;;;;;;;;5070186;28;20033;-66
2021/06/14 10:46:09;;;;;;;4.32;2.13;;;;;;;;;;5071433;28;20052;-66
2021/06/14 10:48:35;;;;;;;2.67;1.52;;;;;;;;;;5068145;28;20013;-66
2021/06/14 10:51:02;;;;;;;3.83;1.60;;;;;;;;;;5104730;28;20536;-66
2021/06/14 10:53:31;;;;;;;2.78;1.35;;;;;;;;;;5072144;28;20021;-66
2021/06/14 10:55:57;;;;;;;4.32;1.70;;;;;;;;;;5069395;28;20117;-66
2021/06/14 10:58:23;;;;;;;3.35;1.70;;;;;;;;;;5068456;28;20063;-66
2021/06/14 11:01:07;;;;;;;4.30;1.90;;;;;;;;;;5071087;28;20052;-66
2021/06/14 11:03:51;;;;;;;3.60;1.45;;;;;;;;;;5069887;28;20031;-66
2021/06/14 11:06:29;;;;;;;2.40;1.50;;;;;;;;;;5065867;28;20036;-66
2021/06/14 11:09:11;;;;;;;3.88;1.92;;;;;;;;;;5066383;28;20048;-66
2021/06/14 11:11:46;;;;;;;4.47;1.20;;;;;;;;;;5068331;28;20016;-66
2021/06/14 11:14:12;;;;;;;4.03;1.52;;;;;;;;;;5064258;28;20016;-67
2021/06/14 11:16:38;;;;;;;3.63;1.13;;;;;;;;;;5075752;28;20016;-67
2021/06/14 11:19:04;;;;;;;3.42;1.65;;;;;;;;;;5101441;28;20082;-67
2021/06/14 11:21:29;;;;;;;4.57;1.90;;;;;;;;;;5069048;28;20023;-67
2021/06/14 11:24:03;;;;;;;3.85;1.75;;;;;;;;;;5066410;28;20388;-67
2021/06/14 11:26:30;;;;;;;2.55;1.45;;;;;;;;;;5068059;28;20055;-66
2021/06/14 11:28:56;;;;;;;7.57;1.75;;;;;;;;;;5065586;28;20187;-66
2021/06/14 11:31:26;;;;;;;3.85;1.48;;;;;;;;;;5071734;28;20114;-66
2021/06/14 11:33:52;;;;;;;3.10;1.90;;;;;;;;;;5101348;27;20023;-66
2021/06/14 11:36:19;;;;;;;4.80;1.80;;;;;;;;;;5100196;28;20032;-67
2021/06/14 11:38:44;;;;;;;3.08;1.90;;;;;;;;;;5065740;28;20044;-66
2021/06/14 11:41:10;;;;;;;3.97;1.65;;;;;;;;;;5067920;28;20456;-66
2021/06/14 11:43:36;;;;;;;5.38;1.95;;;;;;;;;;5069028;28;20025;-66
2021/06/14 11:46:15;;;;;;;4.60;1.58;;;;;;;;;;5073530;28;20021;-65
2021/06/14 11:48:45;;;;;;;4.60;2.10;;;;;;;;;;5070094;28;20070;-65
2021/06/14 11:51:14;;;;;;;3.25;1.83;;;;;;;;;;5071615;28;20028;-66
2021/06/14 11:53:42;;;;;;;4.25;2.10;;;;;;;;;;5070560;28;20044;-66
2021/06/14 11:56:09;;;;;;;3.25;1.98;;;;;;;;;;5077666;28;20017;-66
2021/06/14 11:58:34;;;;;;;4.43;2.40;;;;;;;;;;5070583;28;20103;-65
2021/06/14 12:01:03;;;;;;;4.38;2.10;;;;;;;;;;5101035;28;20548;-65
2021/06/14 12:03:28;;;;;;;2.85;1.85;;;;;;;;;;5068195;28;20044;-66
2021/06/14 12:05:54;;;;;;;4.87;2.20;;;;;;;;;;5060392;28;20169;-66
2021/06/14 12:08:21;;;;;;;5.40;2.17;;;;;;;;;;5057859;28;20529;-66
2021/06/14 12:10:47;;;;;;;5.60;2.03;;;;;;;;;;5073364;28;20517;-66
2021/06/14 12:13:16;;;;;;;3.05;2.13;;;;;;;;;;5072803;28;20464;-65
2021/06/14 12:15:42;;;;;;;5.18;2.03;;;;;;;;;;5075209;28;20051;-67
2021/06/14 12:18:08;;;;;;;3.25;1.55;;;;;;;;;;5071120;28;20105;-66
2021/06/14 12:20:34;;;;;;;3.05;1.50;;;;;;;;;;5072095;28;20467;-67
2021/06/14 12:23:03;;;;;;;3.97;1.45;;;;;;;;;;5102361;28;20043;-67
2021/06/14 12:25:29;;;;;;;4.45;1.65;;;;;;;;;;5072777;28;20476;-67
2021/06/14 12:28:01;;;;;;;6.53;1.75;;;;;;;;;;5068714;28;20037;-67
2021/06/14 12:30:27;;;;;;;2.35;1.50;;;;;;;;;;5074083;28;20481;-67
2021/06/14 12:32:53;;;;;;;3.10;1.60;;;;;;;;;;5071797;28;20127;-66
2021/06/14 12:35:19;;;;;;;2.88;1.70;;;;;;;;;;5072333;28;20146;-67
2021/06/14 12:37:44;;;;;;;3.28;1.75;;;;;;;;;;5067893;28;20119;-67
2021/06/14 12:40:11;;;;;;;3.20;1.47;;;;;;;;;;5071383;28;20488;-67
2021/06/14 12:42:37;;;;;;;5.47;1.80;;;;;;;;;;5070515;28;20017;-67
2021/06/14 12:45:07;;;;;;;4.28;1.58;;;;;;;;;;5072308;28;20027;-67
2021/06/14 12:47:33;;;;;;;5.00;1.77;;;;;;;;;;5071871;28;20012;-67
2021/06/14 12:49:58;;;;;;;2.45;1.67;;;;;;;;;;5087240;28;20034;-67
2021/06/14 12:52:25;;;;;;;2.10;1.60;;;;;;;;;;5073258;28;20039;-68
2021/06/14 12:54:50;;;;;;;2.28;1.42;;;;;;;;;;5072560;28;20016;-68
2021/06/14 12:57:16;;;;;;;3.22;1.83;;;;;;;;;;5070123;28;20021;-68
2021/06/14 12:59:41;;;;;;;3.25;1.80;;;;;;;;;;5068012;28;20055;-67
2021/06/14 13:02:07;;;;;;;4.22;1.73;;;;;;;;;;5065784;28;20586;-68
2021/06/14 13:04:33;;;;;;;5.78;2.05;;;;;;;;;;5065802;28;20029;-67
2021/06/14 13:06:59;;;;;;;3.42;1.75;;;;;;;;;;5062940;28;20465;-69
2021/06/14 13:09:24;;;;;;;3.42;1.50;;;;;;;;;;5065667;28;20021;-67
2021/06/14 13:11:50;;;;;;;5.13;2.10;;;;;;;;;;5064700;28;20309;-67
2021/06/14 13:14:28;;;;;;;4.82;1.90;;;;;;;;;;5065941;28;20275;-67
2021/06/14 13:16:53;;;;;;;3.03;1.92;;;;;;;;;;5063718;28;20025;-67
2021/06/14 13:19:22;;;;;;;4.82;2.30;;;;;;;;;;5066598;28;20039;-67
2021/06/14 13:21:48;;;;;;;5.32;1.98;;;;;;;;;;5068589;28;20030;-67
2021/06/14 13:24:13;;;;;;;5.40;1.47;;;;;;;;;;5064920;28;20024;-67
2021/06/14 13:26:40;;;;;;;3.50;1.87;;;;;;;;;;5061965;28;20017;-67
2021/06/14 13:29:13;;;;;;;4.43;1.70;;;;;;;;;;5063750;28;20028;-67
2021/06/14 13:31:41;;;;;;;2.90;1.60;;;;;;;;;;5069020;28;20013;-67
2021/06/14 13:34:10;;;;;;;2.10;1.40;;;;;;;;;;5070928;28;20035;-67
2021/06/14 13:36:36;;;;;;;4.30;1.55;;;;;;;;;;5071759;28;20047;-68
2021/06/14 13:39:04;;;;;;;3.53;1.50;;;;;;;;;;5071037;28;20138;-68
2021/06/14 13:41:30;;;;;;;3.67;1.75;;;;;;;;;;5072977;28;20385;-68
2021/06/14 13:44:06;;;;;;;3.65;1.58;;;;;;;;;;5071886;28;20020;-66
2021/06/14 13:46:44;;;;;;;4.13;1.80;;;;;;;;;;5070058;28;20028;-66
2021/06/14 13:49:10;;;;;;;3.60;2.00;;;;;;;;;;5068739;28;20023;-66
2021/06/14 13:51:36;;;;;;;4.50;1.80;;;;;;;;;;5082485;28;20035;-68
2021/06/14 13:54:01;;;;;;;3.20;1.48;;;;;;;;;;5071297;28;20033;-67
2021/06/14 13:56:47;;;;;;;3.80;1.60;;;;;;;;;;5070648;28;20023;-68
2021/06/14 13:59:25;;;;;;;3.47;1.80;;;;;;;;;;5070156;28;20024;-67
2021/06/14 14:01:52;;;;;;;3.03;1.38;;;;;;;;;;5072690;28;20016;-67
2021/06/14 14:04:19;;;;;;;2.17;1.20;;;;;;;;;;5071323;28;20070;-67
2021/06/14 14:06:44;;;;;;;3.28;1.52;;;;;;;;;;5081189;28;20039;-66
2021/06/14 14:09:11;;;;;;;3.03;1.58;;;;;;;;;;5108508;27;20115;-66
2021/06/14 14:11:37;;;;;;;4.70;1.75;;;;;;;;;;5068389;28;20029;-69
2021/06/14 14:14:04;;;;;;;2.85;1.55;;;;;;;;;;5070716;28;20024;-67
2021/06/14 14:16:29;;;;;;;2.88;1.30;;;;;;;;;;5071420;28;20016;-68
2021/06/14 14:18:55;;;;;;;4.03;1.38;;;;;;;;;;5066576;28;20027;-67
2021/06/14 14:21:21;;;;;;;3.30;1.38;;;;;;;;;;5063330;28;20032;-69
2021/06/14 14:23:46;;;;;;;4.20;1.50;;;;;;;;;;5069327;28;20017;-67
2021/06/14 14:26:11;;;;;;;3.45;1.67;;;;;;;;;;5071606;28;20113;-67
2021/06/14 14:28:37;;;;;;;2.17;1.40;;;;;;;;;;5067364;28;20020;-67
2021/06/14 14:31:02;;;;;;;3.50;1.17;;;;;;;;;;5069719;28;20470;-66
2021/06/14 14:33:27;;;;;;;1.80;1.50;;;;;;;;;;5076999;28;20024;-67
2021/06/14 14:36:00;;;;;;;6.10;1.17;;;;;;;;;;5077075;28;20028;-67
2021/06/14 14:38:26;;;;;;;2.92;1.50;;;;;;;;;;5064471;28;20092;-67
2021/06/14 14:40:51;;;;;;;2.65;1.35;;;;;;;;;;5078654;28;20114;-67
2021/06/14 14:43:16;;;;;;;3.40;1.30;;;;;;;;;;5076491;28;20070;-67
2021/06/14 14:45:42;;;;;;;8.23;1.23;;;;;;;;;;5071112;28;20035;-66